Time;durP1;ratioP1;P1;durP2;ratioP2;P2;SDS_P1;SDS_P2;PMS_P1;PMS_P2;Temp;Humidity;BMP_temperature;BMP_pressure;BME280_temperature;BME280_humidity;BME280_pressure;Samples;Min_cycle;Max_cycle;Signal;HPM_P1;HPM_P2
2022/12/24 00:01:04;;;;;;;1.10;1.10;;;;;;;4.00;64.92;95016.16;4951969;29;20202;-61
2022/12/24 00:03:31;;;;;;;4.22;3.83;;;;;;;4.03;64.69;95011.34;4951865;29;20204;-60
2022/12/24 00:06:07;;;;;;;0.55;0.55;;;;;;;4.14;64.06;95002.88;4951621;29;20219;-61
2022/12/24 00:08:34;;;;;;;3.50;3.17;;;;;;;4.23;63.80;95016.38;4951611;28;20202;-61
2022/12/24 00:11:02;;;;;;;1.85;1.75;;;;;;;4.31;63.57;95026.47;4951344;28;20601;-63
2022/12/24 00:13:29;;;;;;;2.70;2.58;;;;;;;3.99;64.57;95027.53;4951529;29;20207;-62
2022/12/24 00:15:55;;;;;;;2.38;1.48;;;;;;;3.50;66.21;95035.25;4951797;29;20243;-61
2022/12/24 00:18:22;;;;;;;0.80;0.80;;;;;;;3.83;65.78;95025.47;4951483;29;20231;-62
2022/12/24 00:20:49;;;;;;;0.95;0.95;;;;;;;4.10;64.42;95026.88;4951760;29;20676;-61
2022/12/24 00:23:20;;;;;;;2.13;2.03;;;;;;;3.90;65.29;95021.03;4951665;29;20306;-61
2022/12/24 00:25:47;;;;;;;1.27;1.27;;;;;;;3.64;66.25;95031.56;4951852;29;20207;-61
2022/12/24 00:28:15;;;;;;;2.22;2.13;;;;;;;3.67;66.68;95031.16;4951419;29;20576;-65
2022/12/24 00:30:42;;;;;;;3.10;2.78;;;;;;;3.55;67.14;95012.09;4951585;29;20280;-60
2022/12/24 00:33:09;;;;;;;4.47;4.07;;;;;;;3.95;65.85;95023.78;4950962;29;20273;-61
2022/12/24 00:35:37;;;;;;;5.82;2.92;;;;;;;4.15;64.24;95019.22;4951519;29;20258;-61
2022/12/24 00:38:04;;;;;;;1.77;1.67;;;;;;;4.19;63.26;95011.81;4950982;28;20316;-62
2022/12/24 00:40:32;;;;;;;11.98;4.32;;;;;;;4.33;62.91;95021.88;4952041;29;20234;-63
2022/12/24 00:42:59;;;;;;;3.13;2.45;;;;;;;4.28;62.75;95024.31;4952048;29;20222;-61
2022/12/24 00:45:26;;;;;;;1.20;1.10;;;;;;;4.11;62.59;95020.66;4951789;29;20290;-61
2022/12/24 00:47:54;;;;;;;5.85;4.47;;;;;;;4.18;62.34;95023.22;4951570;29;20679;-62
2022/12/24 00:50:21;;;;;;;4.13;3.22;;;;;;;4.18;62.35;95018.78;4951699;29;20255;-62
2022/12/24 00:52:47;;;;;;;2.05;1.92;;;;;;;4.29;61.89;95019.91;4951246;29;20208;-62
2022/12/24 00:55:14;;;;;;;4.18;3.88;;;;;;;4.23;61.76;95031.94;4951824;29;20699;-61
2022/12/24 00:57:41;;;;;;;2.53;2.38;;;;;;;4.25;61.40;95027.34;4951261;29;20283;-60
2022/12/24 01:00:09;;;;;;;13.15;3.80;;;;;;;4.28;61.15;95028.69;4951207;29;20218;-61
2022/12/24 01:02:36;;;;;;;4.75;4.18;;;;;;;4.36;60.61;95029.22;4951448;29;20218;-61
2022/12/24 01:05:09;;;;;;;6.82;6.03;;;;;;;4.05;60.79;95031.91;4951553;29;20258;-61
2022/12/24 01:07:38;;;;;;;7.57;6.80;;;;;;;4.19;60.91;95023.00;4951350;29;20210;-63
2022/12/24 01:10:08;;;;;;;12.18;9.32;;;;;;;3.98;61.65;95028.53;4951209;29;20668;-62
2022/12/24 01:12:35;;;;;;;17.85;10.50;;;;;;;3.94;61.42;95032.56;4951154;29;20231;-62
2022/12/24 01:15:03;;;;;;;11.38;7.28;;;;;;;3.69;61.91;95035.13;4951902;29;20722;-63
2022/12/24 01:17:31;;;;;;;10.45;6.40;;;;;;;3.72;62.07;95033.94;4939296;29;20204;-61
2022/12/24 01:19:58;;;;;;;10.73;7.32;;;;;;;3.82;62.08;95036.84;4951511;28;20307;-62
2022/12/24 01:22:25;;;;;;;6.10;5.45;;;;;;;4.03;61.80;95026.13;4954021;29;20207;-61
2022/12/24 01:24:52;;;;;;;7.13;5.90;;;;;;;3.88;61.99;95028.22;4955021;29;20216;-63
2022/12/24 01:27:19;;;;;;;15.13;7.15;;;;;;;3.69;62.39;95029.13;4943040;29;20200;-62
2022/12/24 01:29:46;;;;;;;28.33;7.07;;;;;;;3.14;63.97;95029.88;4954504;29;20206;-60
2022/12/24 01:32:13;;;;;;;16.67;5.68;;;;;;;2.88;65.31;95021.19;4954811;29;20267;-61
2022/12/24 01:34:40;;;;;;;5.70;4.07;;;;;;;3.41;63.61;95018.38;4954542;29;20216;-62
2022/12/24 01:37:07;;;;;;;16.58;5.60;;;;;;;3.57;63.00;95020.47;4954576;29;20184;-62
2022/12/24 01:39:34;;;;;;;2.45;2.30;;;;;;;3.78;62.28;95022.69;4954180;29;20231;-62
2022/12/24 01:44:50;;;;;;;7.07;6.30;;;;;;;3.90;61.56;95036.59;4953556;29;20256;-60
2022/12/24 01:47:22;;;;;;;10.93;7.07;;;;;;;3.65;62.10;95030.59;4953083;29;20202;-60
2022/12/24 01:49:55;;;;;;;3.03;2.72;;;;;;;3.50;62.92;95045.63;4952909;29;20235;-62
2022/12/24 01:52:27;;;;;;;7.40;5.78;;;;;;;3.70;62.11;95031.56;4953673;29;20552;-60
2022/12/24 01:54:59;;;;;;;5.80;2.15;;;;;;;3.59;62.64;95018.47;4953081;29;20227;-62
2022/12/24 01:57:33;;;;;;;7.10;6.50;;;;;;;3.68;62.40;95023.19;4952859;29;20200;-62
2022/12/24 02:00:06;;;;;;;13.02;4.35;;;;;;;3.74;62.26;95021.56;4952169;29;20208;-61
2022/12/24 02:02:33;;;;;;;6.25;4.63;;;;;;;3.54;62.52;95026.06;4952702;29;20208;-61
2022/12/24 02:05:07;;;;;;;4.20;3.70;;;;;;;2.82;66.04;95029.78;4953161;29;20188;-61
2022/12/24 02:07:35;;;;;;;2.28;0.98;;;;;;;2.93;65.87;95023.97;4953950;29;20207;-60
2022/12/24 02:10:04;;;;;;;5.43;3.88;;;;;;;3.00;65.73;95009.22;4953533;29;20255;-61
2022/12/24 02:12:34;;;;;;;10.73;4.07;;;;;;;3.30;65.10;95009.47;4952924;29;20200;-63
2022/12/24 02:15:05;;;;;;;1.92;1.42;;;;;;;3.51;64.47;95010.94;4952891;29;20231;-62
2022/12/24 02:17:52;;;;;;;4.18;2.42;;;;;;;3.66;63.18;95019.22;4940082;29;20226;-64
2022/12/24 02:20:25;;;;;;;2.05;1.95;;;;;;;3.39;63.75;95017.78;4940106;29;20204;-61
2022/12/24 02:23:10;;;;;;;2.20;2.10;;;;;;;3.36;63.92;95013.03;4952781;29;20195;-61
2022/12/24 02:25:49;;;;;;;1.30;1.23;;;;;;;3.45;63.50;95016.97;4951999;29;20196;-62
2022/12/24 02:29:04;;;;;;;5.82;3.83;;;;;;;3.71;63.11;95019.38;4952199;29;20203;-62
2022/12/24 02:31:33;;;;;;;1.00;0.68;;;;;;;2.86;65.84;95018.03;4917673;29;20222;-61
2022/12/24 02:34:12;;;;;;;5.95;3.85;;;;;;;2.81;66.39;95024.81;4951800;29;20196;-62
2022/12/24 02:36:49;;;;;;;5.22;3.08;;;;;;;2.48;67.54;95032.66;4952324;29;20196;-62
2022/12/24 02:39:26;;;;;;;1.98;1.75;;;;;;;2.28;68.23;95018.94;4951877;29;20789;-62
2022/12/24 02:42:04;;;;;;;0.90;0.90;;;;;;;2.75;67.08;95021.25;4952356;29;20199;-61
2022/12/24 02:44:52;;;;;;;1.25;1.17;;;;;;;2.69;66.79;95022.06;4911254;29;1211004;-62
2022/12/24 02:47:21;;;;;;;4.72;2.70;;;;;;;2.99;65.92;95022.38;4943402;29;20195;-60
2022/12/24 02:49:48;;;;;;;1.52;1.38;;;;;;;3.02;65.29;95016.75;4952908;29;20196;-62
2022/12/24 02:52:32;;;;;;;3.13;2.38;;;;;;;3.13;65.45;95016.13;4953205;29;20671;-62
2022/12/24 02:55:03;;;;;;;1.08;0.63;;;;;;;3.24;64.80;94996.53;4952898;29;20192;-61
2022/12/24 02:57:50;;;;;;;1.45;1.35;;;;;;;3.45;64.08;94993.66;4952954;29;20216;-62
2022/12/24 03:00:19;;;;;;;4.35;2.53;;;;;;;3.46;63.94;94997.81;4939879;29;20196;-61
2022/12/24 03:03:13;;;;;;;2.45;2.28;;;;;;;3.41;63.43;95000.25;4935735;29;20204;-61
2022/12/24 03:05:55;;;;;;;2.28;1.55;;;;;;;3.33;63.31;94998.69;4965872;28;20199;-63
2022/12/24 03:08:35;;;;;;;10.75;4.13;;;;;;;3.33;62.97;95008.25;4952236;29;20295;-63
2022/12/24 03:11:14;;;;;;;4.15;1.67;;;;;;;3.41;63.06;95015.78;4952946;29;20270;-62
2022/12/24 03:13:42;;;;;;;3.63;1.30;;;;;;;3.35;62.70;95012.22;4952705;29;20230;-61
2022/12/24 03:16:13;;;;;;;3.35;3.03;;;;;;;3.36;62.81;95007.84;4953084;29;20204;-61
2022/12/24 03:18:44;;;;;;;3.28;3.00;;;;;;;3.37;62.83;95009.44;4951834;29;20234;-60
2022/12/24 03:21:28;;;;;;;1.63;1.52;;;;;;;3.16;63.04;95001.97;4952401;29;20200;-61
2022/12/24 03:23:56;;;;;;;2.97;2.80;;;;;;;2.94;62.98;94997.09;4952189;29;20290;-62
2022/12/24 03:26:24;;;;;;;7.93;4.72;;;;;;;2.89;62.85;94999.50;4952732;29;20251;-62
2022/12/24 03:28:51;;;;;;;4.63;4.25;;;;;;;3.02;62.68;95007.22;4952103;29;20659;-61
2022/12/24 03:31:19;;;;;;;9.73;5.78;;;;;;;2.98;62.72;95013.78;4952856;29;20196;-62
2022/12/24 03:33:47;;;;;;;30.48;5.65;;;;;;;2.95;62.73;95005.66;4952331;29;20204;-60
2022/12/24 03:36:14;;;;;;;5.28;3.67;;;;;;;2.45;63.65;95004.59;4952214;29;20230;-62
2022/12/24 03:38:41;;;;;;;11.18;7.25;;;;;;;2.37;64.32;95011.81;4952175;29;20242;-60
2022/12/24 03:41:08;;;;;;;7.68;6.95;;;;;;;2.24;63.89;95006.66;4952271;29;20199;-63
2022/12/24 03:43:34;;;;;;;5.95;5.07;;;;;;;2.01;65.21;95013.03;4951533;28;20678;-61
2022/12/24 03:46:06;;;;;;;8.80;6.70;;;;;;;2.11;65.42;95012.63;4951752;29;20203;-61
2022/12/24 03:48:34;;;;;;;19.35;8.68;;;;;;;2.34;65.04;95012.97;4952025;29;20270;-60
2022/12/24 03:51:02;;;;;;;5.43;3.08;;;;;;;2.31;65.21;95010.81;4951664;28;20896;-62
2022/12/24 03:53:30;;;;;;;2.92;2.72;;;;;;;2.49;65.12;95013.56;4952262;29;20203;-61
2022/12/24 03:55:57;;;;;;;12.50;7.05;;;;;;;2.56;64.79;95021.28;4951917;29;20286;-63
2022/12/24 03:58:24;;;;;;;3.42;3.22;;;;;;;2.52;64.44;95020.91;4951880;29;20204;-61
2022/12/24 04:00:52;;;;;;;2.13;2.03;;;;;;;2.57;64.25;95005.59;4951986;29;20200;-62
2022/12/24 04:03:19;;;;;;;13.75;4.57;;;;;;;2.59;64.52;95020.91;4952368;29;20243;-61
2022/12/24 04:05:46;;;;;;;8.02;6.18;;;;;;;2.79;63.92;95009.47;4951749;29;20685;-62
2022/12/24 04:08:13;;;;;;;6.55;4.85;;;;;;;2.72;63.55;95020.88;4952050;29;20204;-60
2022/12/24 04:10:40;;;;;;;9.63;5.85;;;;;;;2.45;64.53;95024.50;4951864;29;20574;-62
2022/12/24 04:13:07;;;;;;;4.85;3.47;;;;;;;2.69;64.19;95031.59;4951698;29;20239;-60
2022/12/24 04:15:33;;;;;;;11.48;7.40;;;;;;;2.88;63.90;95035.94;4951432;29;20282;-61
2022/12/24 04:18:00;;;;;;;4.47;3.40;;;;;;;3.17;63.72;95029.44;4951659;29;20209;-61
2022/12/24 04:20:27;;;;;;;4.18;3.88;;;;;;;3.31;63.56;95026.59;4951053;29;20227;-63
2022/12/24 04:22:55;;;;;;;2.25;2.15;;;;;;;3.23;63.54;95031.22;4951226;29;20283;-61
2022/12/24 04:25:22;;;;;;;5.28;4.40;;;;;;;3.28;63.88;95026.22;4951025;29;20215;-62
2022/12/24 04:27:48;;;;;;;3.80;3.47;;;;;;;2.81;64.67;95024.81;4950972;29;20227;-61
2022/12/24 04:30:15;;;;;;;10.98;4.97;;;;;;;2.38;66.24;95042.63;4951388;29;20656;-62
2022/12/24 04:32:42;;;;;;;5.68;5.15;;;;;;;2.39;66.78;95044.19;4951516;29;20638;-61
2022/12/24 04:35:09;;;;;;;4.03;2.88;;;;;;;2.05;68.63;95054.78;4951182;29;20215;-61
2022/12/24 04:37:36;;;;;;;2.63;2.47;;;;;;;2.31;67.54;95059.94;4951306;29;20318;-62
2022/12/24 04:40:03;;;;;;;2.97;2.78;;;;;;;2.59;66.55;95052.72;4950660;29;20261;-61
2022/12/24 04:42:30;;;;;;;4.38;4.05;;;;;;;2.86;65.34;95064.63;4951344;29;20222;-60
2022/12/24 04:44:57;;;;;;;4.63;4.03;;;;;;;3.04;64.21;95061.38;4950683;29;20235;-61
2022/12/24 04:47:23;;;;;;;7.28;5.45;;;;;;;3.24;62.71;95062.06;4950996;29;20200;-62
2022/12/24 04:49:50;;;;;;;6.05;5.07;;;;;;;3.14;62.62;95060.94;4951287;29;20227;-61
2022/12/24 04:52:17;;;;;;;6.70;5.43;;;;;;;2.96;62.15;95054.63;4950582;29;20254;-61
2022/12/24 04:54:44;;;;;;;4.40;2.63;;;;;;;2.84;62.89;95056.25;4950801;28;20258;-61
2022/12/24 04:57:11;;;;;;;3.83;3.35;;;;;;;2.72;63.34;95057.09;4951013;29;20239;-62
2022/12/24 04:59:38;;;;;;;6.97;4.05;;;;;;;2.51;63.58;95054.72;4933952;29;20231;-61
2022/12/24 05:02:04;;;;;;;3.03;2.55;;;;;;;2.70;63.21;95054.69;4951165;29;20204;-61
2022/12/24 05:04:32;;;;;;;2.85;2.70;;;;;;;2.87;62.98;95061.00;4951030;29;20195;-62
2022/12/24 05:06:58;;;;;;;11.15;6.40;;;;;;;2.74;62.41;95039.53;4950998;29;20246;-63
2022/12/24 05:09:25;;;;;;;7.95;5.75;;;;;;;2.85;62.13;95052.66;4950531;29;20228;-62
2022/12/24 05:11:52;;;;;;;13.30;5.65;;;;;;;2.98;61.91;95047.44;4951058;29;20207;-62
2022/12/24 05:14:19;;;;;;;12.05;9.10;;;;;;;2.78;62.15;95046.72;4938288;29;20199;-60
2022/12/24 05:16:46;;;;;;;5.97;5.45;;;;;;;3.03;61.19;95037.25;4950803;29;20262;-62
2022/12/24 05:19:13;;;;;;;12.48;9.50;;;;;;;3.16;60.65;95033.06;4950631;29;20304;-61
2022/12/24 05:21:40;;;;;;;11.70;10.23;;;;;;;3.12;60.83;95031.88;4950896;29;20204;-61
2022/12/24 05:26:57;;;;;;;12.23;9.68;;;;;;;2.86;61.20;95027.59;4949997;29;20207;-62
2022/12/24 05:29:24;;;;;;;13.38;9.05;;;;;;;2.82;61.19;95027.19;4950739;29;20555;-61
2022/12/24 05:31:51;;;;;;;16.25;12.13;;;;;;;2.89;60.80;95037.50;4950584;29;20211;-61
2022/12/24 05:34:18;;;;;;;7.85;7.10;;;;;;;2.86;61.08;95036.16;4950883;29;20647;-61
2022/12/24 05:36:45;;;;;;;26.85;15.32;;;;;;;2.73;60.74;95043.94;4948859;29;20239;-62
2022/12/24 05:39:16;;;;;;;15.80;10.63;;;;;;;2.69;61.13;95042.75;4943031;29;20684;-62
2022/12/24 05:41:44;;;;;;;14.30;9.65;;;;;;;2.35;61.78;95037.88;4940087;29;20548;-61
2022/12/24 05:44:11;;;;;;;9.00;8.10;;;;;;;2.68;61.41;95035.22;4944507;29;20299;-60
2022/12/24 05:46:38;;;;;;;9.68;7.40;;;;;;;1.79;63.58;95026.31;4945636;29;20264;-61
2022/12/24 05:49:05;;;;;;;16.05;9.07;;;;;;;1.97;63.40;95031.72;4948997;29;20279;-62
2022/12/24 05:51:32;;;;;;;14.90;11.88;;;;;;;2.18;62.55;95035.88;4950498;29;20234;-62
2022/12/24 05:53:58;;;;;;;11.80;7.57;;;;;;;1.47;65.08;95030.47;4950463;29;20223;-64
2022/12/24 05:56:26;;;;;;;7.50;6.78;;;;;;;2.11;63.07;95028.13;4950435;29;20188;-61
2022/12/24 05:58:53;;;;;;;7.30;6.65;;;;;;;2.37;62.13;95022.13;4950250;29;20200;-61
2022/12/24 06:01:21;;;;;;;6.03;4.93;;;;;;;2.52;61.66;95026.06;4950660;29;20215;-61
2022/12/24 06:03:50;;;;;;;9.05;7.82;;;;;;;2.63;61.17;95032.41;4950752;29;20203;-63
2022/12/24 06:06:20;;;;;;;13.15;6.07;;;;;;;2.70;61.17;95044.34;4950287;28;20210;-62
2022/12/24 06:08:49;;;;;;;16.65;7.35;;;;;;;2.61;61.78;95027.44;4953343;29;20301;-61
2022/12/24 06:11:18;;;;;;;6.15;5.53;;;;;;;2.13;62.63;95041.66;4954177;29;20616;-61
2022/12/24 06:13:45;;;;;;;7.85;7.10;;;;;;;2.44;62.30;95039.25;4951162;29;20200;-61
2022/12/24 06:16:17;;;;;;;7.00;6.40;;;;;;;1.85;63.55;95039.25;4952906;29;20674;-61
2022/12/24 06:18:45;;;;;;;11.50;8.82;;;;;;;1.61;64.04;95057.91;4941014;29;20200;-61
2022/12/24 06:21:12;;;;;;;9.48;4.20;;;;;;;1.95;63.56;95055.16;4954371;29;20203;-60
2022/12/24 06:23:40;;;;;;;4.38;4.03;;;;;;;1.59;63.89;95053.91;4953514;29;20196;-60
2022/12/24 06:26:11;;;;;;;12.07;9.50;;;;;;;1.96;63.19;95066.28;4953019;29;20676;-60
2022/12/24 06:28:38;;;;;;;6.75;5.22;;;;;;;2.22;62.53;95050.00;4953292;29;20657;-61
2022/12/24 06:31:09;;;;;;;6.55;6.00;;;;;;;2.29;62.54;95056.75;4953539;29;20274;-61
2022/12/24 06:33:37;;;;;;;14.65;8.18;;;;;;;2.12;62.38;95060.72;4953248;29;20212;-60
2022/12/24 06:36:08;;;;;;;5.30;4.82;;;;;;;1.76;63.00;95071.44;4954168;29;20223;-59
2022/12/24 06:38:43;;;;;;;3.15;2.92;;;;;;;2.10;62.40;95075.63;4952764;29;20203;-62
2022/12/24 06:41:10;;;;;;;5.57;4.63;;;;;;;1.83;62.99;95074.84;4953146;29;20232;-60
2022/12/24 06:43:37;;;;;;;3.38;3.13;;;;;;;1.48;63.20;95080.34;4935214;29;20192;-60
2022/12/24 06:46:04;;;;;;;8.68;7.70;;;;;;;1.39;64.21;95086.66;4952945;29;20206;-60
2022/12/24 06:48:31;;;;;;;9.65;6.00;;;;;;;1.35;64.37;95086.25;4953130;29;20215;-63
2022/12/24 06:51:01;;;;;;;5.30;4.55;;;;;;;1.78;63.68;95089.34;4953774;29;20239;-63
2022/12/24 06:53:28;;;;;;;4.72;4.28;;;;;;;1.93;62.61;95092.53;4953191;29;20899;-60
2022/12/24 06:56:03;;;;;;;4.25;3.92;;;;;;;2.22;62.60;95089.56;4953203;29;20203;-61
2022/12/24 06:58:30;;;;;;;4.47;2.83;;;;;;;2.47;61.89;95090.56;4952888;29;20257;-60
2022/12/24 07:00:57;;;;;;;19.95;9.95;;;;;;;2.70;61.30;95090.91;4952908;29;20243;-59
2022/12/24 07:03:24;;;;;;;10.60;6.82;;;;;;;2.28;62.74;95086.16;4953127;29;20283;-60
2022/12/24 07:05:50;;;;;;;8.70;6.28;;;;;;;2.64;61.82;95086.56;4944156;29;20204;-62
2022/12/24 07:08:17;;;;;;;8.43;5.50;;;;;;;2.64;61.60;95091.72;4935508;29;20204;-62
2022/12/24 07:10:44;;;;;;;5.00;3.50;;;;;;;2.97;61.20;95086.47;4945330;29;20235;-60
2022/12/24 07:13:19;;;;;;;9.02;5.35;;;;;;;3.03;61.37;95078.69;4953170;29;20204;-63
2022/12/24 07:15:46;;;;;;;3.33;3.10;;;;;;;3.37;61.05;95081.94;4948080;29;20663;-61
2022/12/24 07:18:13;;;;;;;5.78;4.90;;;;;;;3.64;60.49;95081.59;4951948;28;20295;-59
2022/12/24 07:20:41;;;;;;;6.20;4.22;;;;;;;3.75;60.27;95078.34;4951770;29;20602;-60
2022/12/24 07:23:08;;;;;;;5.25;4.75;;;;;;;4.13;60.11;95080.88;4952664;29;20349;-60
2022/12/24 07:25:35;;;;;;;14.13;4.15;;;;;;;4.09;60.63;95071.94;4952210;29;20802;-61
2022/12/24 07:28:02;;;;;;;6.20;5.63;;;;;;;4.07;61.45;95066.16;4952624;29;20211;-61
2022/12/24 07:30:29;;;;;;;14.45;6.18;;;;;;;4.30;60.52;95069.00;4952311;29;20271;-62
2022/12/24 07:32:55;;;;;;;3.40;3.10;;;;;;;4.36;60.26;95073.31;4951946;29;20290;-63
2022/12/24 07:35:22;;;;;;;12.95;9.43;;;;;;;4.26;60.21;95072.19;4952089;29;20218;-61
2022/12/24 07:37:49;;;;;;;3.45;1.90;;;;;;;4.41;59.71;95070.88;4952265;29;20210;-63
2022/12/24 07:40:16;;;;;;;3.95;3.50;;;;;;;3.91;60.16;95084.81;4952025;29;20648;-61
2022/12/24 07:42:43;;;;;;;7.65;5.00;;;;;;;4.11;60.32;95088.88;4951869;29;20283;-61
2022/12/24 07:45:10;;;;;;;18.30;5.15;;;;;;;4.19;60.29;95074.84;4951368;29;20707;-61
2022/12/24 07:47:37;;;;;;;2.50;2.30;;;;;;;4.40;59.59;95077.06;4952696;29;20226;-62
2022/12/24 07:50:05;;;;;;;3.05;2.70;;;;;;;4.50;59.65;95085.19;4952415;29;20722;-60
2022/12/24 07:52:31;;;;;;;4.93;2.95;;;;;;;4.68;59.22;95082.63;4951710;29;20296;-62
2022/12/24 07:54:58;;;;;;;2.92;2.67;;;;;;;4.72;60.59;95083.78;4946395;29;20291;-66
2022/12/24 07:57:25;;;;;;;7.15;3.38;;;;;;;4.96;60.77;95087.34;4951652;29;20251;-63
2022/12/24 07:59:52;;;;;;;6.65;5.97;;;;;;;5.22;60.87;95091.44;4951610;29;20218;-63
2022/12/24 08:02:19;;;;;;;14.35;3.80;;;;;;;5.31;61.60;95087.56;4950630;29;20207;-61
2022/12/24 08:04:46;;;;;;;5.57;3.70;;;;;;;5.33;61.06;95095.91;4951571;29;20203;-62
2022/12/24 08:07:13;;;;;;;2.85;2.65;;;;;;;5.37;61.08;95097.84;4947154;29;20267;-63
2022/12/24 08:09:40;;;;;;;10.05;3.05;;;;;;;5.45;61.25;95104.56;4942165;29;20209;-60
2022/12/24 08:12:07;;;;;;;3.90;3.60;;;;;;;5.62;61.32;95110.75;4940327;29;20225;-64
2022/12/24 08:14:33;;;;;;;11.68;1.83;;;;;;;5.83;61.39;95102.50;4951251;29;20195;-62
2022/12/24 08:17:00;;;;;;;2.35;2.25;;;;;;;5.97;60.43;95106.50;4951660;29;20261;-62
2022/12/24 08:19:27;;;;;;;4.65;4.28;;;;;;;5.94;60.63;95114.75;4942977;29;20196;-61
2022/12/24 08:21:54;;;;;;;2.92;2.72;;;;;;;5.74;59.95;95115.00;4942346;29;20200;-63
2022/12/24 08:24:21;;;;;;;3.50;2.90;;;;;;;5.69;61.69;95114.06;4951072;29;20259;-59
2022/12/24 08:26:48;;;;;;;11.52;5.72;;;;;;;5.91;60.66;95099.59;4950267;29;20218;-60
2022/12/24 08:29:14;;;;;;;5.40;4.40;;;;;;;5.88;60.16;95100.03;4950582;29;20208;-60
2022/12/24 08:31:41;;;;;;;5.88;4.45;;;;;;;5.87;59.90;95101.06;4951019;28;20262;-61
2022/12/24 08:34:09;;;;;;;12.35;7.38;;;;;;;6.09;60.05;95096.94;4950347;29;20211;-60
2022/12/24 08:36:36;;;;;;;2.78;2.30;;;;;;;6.04;61.69;95094.19;4950390;29;20696;-61
2022/12/24 08:39:03;;;;;;;6.57;4.43;;;;;;;6.00;62.19;95082.66;4948499;29;20310;-62
2022/12/24 08:41:30;;;;;;;3.88;3.58;;;;;;;6.07;61.62;95088.56;4948315;29;20243;-61
2022/12/24 08:43:58;;;;;;;5.88;4.65;;;;;;;6.17;61.48;95083.59;4948669;29;20917;-59
2022/12/24 08:46:25;;;;;;;3.50;3.17;;;;;;;6.21;61.67;95083.94;4949635;29;20202;-62
2022/12/24 08:48:52;;;;;;;4.70;3.88;;;;;;;6.40;61.38;95078.44;4950484;29;20200;-60
2022/12/24 08:51:19;;;;;;;13.35;5.00;;;;;;;5.94;61.69;95079.16;4950273;29;20192;-61
2022/12/24 08:54:04;;;;;;;5.85;2.80;;;;;;;6.20;61.88;95082.38;4951035;29;20184;-62
2022/12/24 08:56:31;;;;;;;5.22;3.83;;;;;;;6.43;60.71;95082.38;4950968;29;20738;-61
2022/12/24 08:58:58;;;;;;;1.48;1.38;;;;;;;6.22;60.92;95086.34;4950837;29;20651;-61
2022/12/24 09:01:24;;;;;;;0.38;0.38;;;;;;;6.11;61.83;95105.31;4951357;29;20216;-61
2022/12/24 09:03:51;;;;;;;6.78;4.13;;;;;;;6.19;61.60;95102.38;4951203;29;20635;-62
2022/12/24 09:06:20;;;;;;;4.10;3.67;;;;;;;6.01;62.17;95092.03;4950883;29;20271;-62
2022/12/24 09:08:47;;;;;;;4.60;2.45;;;;;;;6.08;61.77;95090.13;4950565;29;20203;-62
2022/12/24 09:11:17;;;;;;;1.92;1.73;;;;;;;6.25;61.63;95080.69;4951216;28;20235;-62
2022/12/24 09:13:44;;;;;;;1.63;1.50;;;;;;;6.11;62.06;95084.50;4951069;29;20274;-61
2022/12/24 09:16:11;;;;;;;1.33;1.23;;;;;;;6.22;62.70;95085.53;4950453;29;20199;-63
2022/12/24 09:18:39;;;;;;;3.15;2.92;;;;;;;6.24;62.94;95084.28;4950543;29;20203;-62
2022/12/24 09:21:10;;;;;;;2.60;1.63;;;;;;;6.27;62.50;95083.84;4951439;29;20234;-61
2022/12/24 09:23:40;;;;;;;5.63;3.65;;;;;;;6.14;62.73;95086.66;4951188;29;20655;-60
2022/12/24 09:26:22;;;;;;;5.20;2.63;;;;;;;5.97;63.10;95077.88;4950420;29;20667;-63
2022/12/24 09:28:50;;;;;;;5.03;3.75;;;;;;;5.93;63.92;95080.13;4950334;29;20199;-60
2022/12/24 09:31:18;;;;;;;4.82;4.28;;;;;;;6.24;62.92;95088.72;4951114;29;20667;-61
2022/12/24 09:33:46;;;;;;;3.95;3.63;;;;;;;5.81;63.72;95074.09;4938195;29;20208;-61
2022/12/24 09:36:13;;;;;;;2.58;2.38;;;;;;;6.17;63.17;95088.78;4950562;29;20306;-61
2022/12/24 09:38:40;;;;;;;7.45;4.82;;;;;;;5.92;63.97;95081.16;4950072;29;20208;-61
2022/12/24 09:41:30;;;;;;;5.93;5.38;;;;;;;6.01;63.43;95079.84;4950064;28;20687;-60
2022/12/24 09:44:19;;;;;;;5.07;4.57;;;;;;;6.21;63.33;95078.72;4943257;29;20232;-61
2022/12/24 09:46:49;;;;;;;5.10;4.55;;;;;;;6.28;63.20;95085.44;4953899;29;20200;-62
2022/12/24 09:49:23;;;;;;;12.27;5.80;;;;;;;6.09;63.07;95061.28;4953789;29;20644;-62
2022/12/24 09:51:58;;;;;;;5.55;3.58;;;;;;;6.47;62.41;95073.13;4953291;29;20231;-62
2022/12/24 09:54:33;;;;;;;2.20;1.77;;;;;;;6.68;61.86;95080.41;4953713;28;20250;-61
2022/12/24 09:57:07;;;;;;;8.13;5.57;;;;;;;6.80;62.14;95068.94;4953996;29;20195;-63
2022/12/24 09:59:45;;;;;;;8.18;4.63;;;;;;;6.16;62.56;95076.81;4953948;29;20621;-60
2022/12/24 10:02:18;;;;;;;7.47;5.45;;;;;;;6.33;62.70;95067.34;4947219;29;20192;-63
2022/12/24 10:04:47;;;;;;;8.02;4.90;;;;;;;6.15;62.99;95075.22;4941620;29;20204;-60
2022/12/24 10:07:47;;;;;;;10.85;5.53;;;;;;;6.65;62.39;95080.81;4953339;29;20199;-60
2022/12/24 10:10:33;;;;;;;4.30;2.85;;;;;;;6.69;62.36;95087.16;4952908;29;20239;-61
2022/12/24 10:13:32;;;;;;;9.77;3.50;;;;;;;6.78;62.26;95076.19;4943481;29;20235;-60
2022/12/24 10:16:06;;;;;;;4.55;3.60;;;;;;;6.47;62.79;95073.91;4943531;29;20207;-60
2022/12/24 10:18:41;;;;;;;4.38;2.78;;;;;;;6.63;61.75;95068.03;4953276;29;20631;-59
2022/12/24 10:21:37;;;;;;;18.48;6.55;;;;;;;6.51;61.79;95064.66;4953402;29;20558;-59
2022/12/24 10:24:15;;;;;;;2.05;1.95;;;;;;;6.58;62.01;95059.31;4953724;29;20212;-61
2022/12/24 10:26:55;;;;;;;12.02;5.88;;;;;;;7.01;61.49;95055.31;4934796;29;20594;-61
2022/12/24 10:29:26;;;;;;;7.30;6.05;;;;;;;7.36;61.06;95055.25;4953659;29;20199;-60
2022/12/24 10:32:08;;;;;;;3.20;2.97;;;;;;;7.32;60.37;95053.34;4953771;29;20203;-64
2022/12/24 10:34:45;;;;;;;5.20;4.05;;;;;;;7.22;60.10;95057.31;4953867;29;20207;-60
2022/12/24 10:37:15;;;;;;;6.90;4.57;;;;;;;7.17;60.18;95054.59;4953579;29;20215;-62
2022/12/24 10:39:42;;;;;;;6.13;4.43;;;;;;;7.15;61.20;95058.50;4952631;29;20291;-60
2022/12/24 10:42:12;;;;;;;20.27;6.93;;;;;;;7.49;60.44;95046.38;4951659;29;20231;-62
2022/12/24 10:44:39;;;;;;;8.90;4.32;;;;;;;7.46;60.14;95044.22;4949561;29;20234;-70
2022/12/24 10:47:09;;;;;;;3.83;3.40;;;;;;;7.69;59.90;95031.09;4950655;29;20305;-67
2022/12/24 10:50:03;;;;;;;3.50;2.10;;;;;;;7.67;59.64;95035.75;4949708;29;20200;-70
2022/12/24 10:52:36;;;;;;;4.05;2.88;;;;;;;7.23;60.50;95026.84;4937704;29;20459;-68
2022/12/24 10:55:12;;;;;;;8.00;1.98;;;;;;;7.48;60.10;95034.38;4951011;29;20203;-68
2022/12/24 10:57:39;;;;;;;5.10;4.18;;;;;;;7.66;59.57;95026.34;4952703;29;20584;-65
2022/12/24 11:00:20;;;;;;;1.95;1.80;;;;;;;7.48;59.23;95029.94;4952386;29;20586;-67
2022/12/24 11:02:48;;;;;;;1.27;1.17;;;;;;;7.15;61.03;95029.81;4952733;29;20294;-64
2022/12/24 11:05:32;;;;;;;1.55;1.45;;;;;;;7.52;60.15;95035.50;4952536;29;20686;-64
2022/12/24 11:08:04;;;;;;;5.03;2.25;;;;;;;7.64;59.46;95028.41;4936178;29;20315;-56
2022/12/24 11:10:38;;;;;;;5.18;3.22;;;;;;;8.01;58.79;95032.19;4943220;29;20659;-66
2022/12/24 11:13:25;;;;;;;4.83;3.43;;;;;;;7.55;59.15;95037.63;4950698;29;20200;-67
2022/12/24 11:16:22;;;;;;;5.35;3.75;;;;;;;7.74;59.04;95039.00;4941155;29;20543;-64
2022/12/24 11:18:52;;;;;;;3.63;3.28;;;;;;;7.45;60.62;95027.00;4952095;29;20639;-67
2022/12/24 11:21:35;;;;;;;3.47;3.03;;;;;;;7.63;60.20;95021.59;4935561;29;20238;-57
2022/12/24 11:24:12;;;;;;;3.75;2.33;;;;;;;7.80;59.45;95028.44;4952737;29;20714;-62
2022/12/24 11:26:42;;;;;;;1.52;1.42;;;;;;;8.02;57.95;95023.31;4952119;29;20196;-68
2022/12/24 11:29:13;;;;;;;3.22;1.50;;;;;;;7.49;59.07;95026.31;4950276;29;20699;-62
2022/12/24 11:31:42;;;;;;;0.50;0.50;;;;;;;7.97;58.35;95025.88;4952844;29;20199;-72
2022/12/24 11:34:21;;;;;;;4.22;3.00;;;;;;;8.28;57.67;95033.19;4953119;29;20207;-67
2022/12/24 11:36:49;;;;;;;3.47;2.38;;;;;;;8.41;57.50;95035.47;4952418;29;20199;-68
2022/12/24 11:39:22;;;;;;;2.10;1.88;;;;;;;8.25;57.95;95031.03;4952976;29;20227;-63
2022/12/24 11:41:51;;;;;;;2.25;2.13;;;;;;;8.56;57.43;95027.84;4952302;29;20635;-61
2022/12/24 11:44:25;;;;;;;2.22;2.05;;;;;;;8.89;56.86;95027.81;4951572;29;20332;-67
2022/12/24 11:46:57;;;;;;;2.70;2.50;;;;;;;9.04;56.88;95022.00;4951642;29;20204;-65
2022/12/24 11:49:27;;;;;;;1.10;1.10;;;;;;;9.30;55.31;95033.53;4939266;29;20248;-69
2022/12/24 11:51:59;;;;;;;1.98;1.85;;;;;;;9.23;54.83;95023.28;4950348;29;20447;-63
2022/12/24 11:54:30;;;;;;;1.77;1.67;;;;;;;9.33;55.54;95012.13;4951902;29;20227;-63
2022/12/24 11:56:59;;;;;;;2.13;1.90;;;;;;;9.39;54.81;95017.19;4951744;29;20517;-63
2022/12/24 11:59:32;;;;;;;0.83;0.80;;;;;;;9.59;54.33;95006.16;4951631;29;20875;-64